SWR47 LSZH-TXKF
Flight info
| Callsign | SWR47 |
|---|---|
| Flight time | N/A |
| Altitude | 32000 |
| Route | ZUE T163 LADOL DCT PITES DCT DENUT L610 BULAM/N0484F340 L610 KOPUL Q60 OKSAW DCT PENWU DCT ELTIG DCT AMDEP DCT LEKVA/M084F340 DCT 50N022W 48N030W 46N038W 44N045W/M084F360 41N051W 37N056W DCT BALOO |
| Aircraft | B77W/H-SDE1E2E3FGHIJ2J3J4J5M1RWXY/LB1D1 |
Departure
| Time | 2026-02-17 12:25 |
|---|---|
| Airport | Zürich Airport (LSZH) |
Arrival
| Time | N/A |
|---|---|
| Airport | L.F. Wade International Airport (TXKF) |
| Time | Latitude | Longitude | Altitude | Speed | Heading |
|---|---|---|---|---|---|
| 2026-02-17 11:29 | 47.46036 | 8.55737 | 1402 ft | 0 kts | 6° |
| 2026-02-17 12:12 | 47.46032 | 8.55737 | 1402 ft | 2 kts | 6° |
| 2026-02-17 12:12 | 47.46013 | 8.55734 | 1410 ft | 3 kts | 6° |
| 2026-02-17 12:12 | 47.45994 | 8.55730 | 1402 ft | 3 kts | 14° |
| 2026-02-17 12:12 | 47.45975 | 8.55720 | 1412 ft | 3 kts | 32° |
| 2026-02-17 12:13 | 47.45960 | 8.55702 | 1402 ft | 3 kts | 57° |
| 2026-02-17 12:13 | 47.45953 | 8.55679 | 1410 ft | 2 kts | 91° |
| 2026-02-17 12:13 | 47.45954 | 8.55662 | 1402 ft | 3 kts | 96° |
| 2026-02-17 12:13 | 47.45956 | 8.55633 | 1409 ft | 3 kts | 96° |
| 2026-02-17 12:14 | 47.45957 | 8.55621 | 1401 ft | 1 kts | 96° |
| 2026-02-17 12:20 | 47.45955 | 8.55643 | 1408 ft | 7 kts | 96° |
| 2026-02-17 12:20 | 47.45946 | 8.55773 | 1404 ft | 16 kts | 96° |
| 2026-02-17 12:20 | 47.45936 | 8.55926 | 1412 ft | 14 kts | 96° |
| 2026-02-17 12:21 | 47.45927 | 8.56049 | 1407 ft | 11 kts | 95° |
| 2026-02-17 12:21 | 47.45921 | 8.56147 | 1415 ft | 9 kts | 95° |
| 2026-02-17 12:21 | 47.45915 | 8.56233 | 1415 ft | 8 kts | 96° |
| 2026-02-17 12:21 | 47.45906 | 8.56340 | 1415 ft | 13 kts | 102° |
| 2026-02-17 12:22 | 47.45855 | 8.56471 | 1410 ft | 16 kts | 134° |
| 2026-02-17 12:22 | 47.45802 | 8.56588 | 1410 ft | 12 kts | 107° |
| 2026-02-17 12:22 | 47.45791 | 8.56697 | 1410 ft | 9 kts | 96° |
| 2026-02-17 12:23 | 47.45775 | 8.56916 | 1406 ft | 10 kts | 96° |
| 2026-02-17 12:23 | 47.45761 | 8.56985 | 1409 ft | 4 kts | 118° |
| 2026-02-17 12:23 | 47.45748 | 8.57008 | 1410 ft | 4 kts | 136° |
| 2026-02-17 12:23 | 47.45691 | 8.57027 | 1408 ft | 9 kts | 195° |
| 2026-02-17 12:24 | 47.45670 | 8.56993 | 1403 ft | 3 kts | 248° |
| 2026-02-17 12:24 | 47.45668 | 8.56909 | 1403 ft | 17 kts | 274° |
| 2026-02-17 12:24 | 47.45696 | 8.56523 | 1402 ft | 75 kts | 276° |
| 2026-02-17 12:24 | 47.45781 | 8.55303 | 1405 ft | 162 kts | 275° |
| 2026-02-17 12:25 | 47.45924 | 8.53435 | 2021 ft | 186 kts | 275° |
| 2026-02-17 12:25 | 47.46057 | 8.51629 | 3495 ft | 170 kts | 275° |
| 2026-02-17 12:25 | 47.46190 | 8.49882 | 4606 ft | 173 kts | 277° |
| 2026-02-17 12:25 | 47.46212 | 8.48072 | 4946 ft | 184 kts | 260° |
| 2026-02-17 12:26 | 47.45642 | 8.46308 | 5410 ft | 196 kts | 241° |
| 2026-02-17 12:26 | 47.44650 | 8.44859 | 5904 ft | 204 kts | 230° |
| 2026-02-17 12:26 | 47.43729 | 8.43297 | 6451 ft | 199 kts | 246° |
| 2026-02-17 12:27 | 47.42945 | 8.39468 | 7496 ft | 197 kts | 259° |
| 2026-02-17 12:27 | 47.42905 | 8.37501 | 7939 ft | 196 kts | 291° |
| 2026-02-17 12:27 | 47.43430 | 8.36379 | 8063 ft | 212 kts | 316° |
| 2026-02-17 12:27 | 47.45472 | 8.35721 | 8457 ft | 257 kts | 6° |
| 2026-02-17 12:28 | 47.47181 | 8.36796 | 8949 ft | 276 kts | 22° |
| 2026-02-17 12:28 | 47.48859 | 8.38328 | 9459 ft | 289 kts | 27° |
| 2026-02-17 12:28 | 47.50515 | 8.40082 | 10037 ft | 297 kts | 36° |
| 2026-02-17 12:28 | 47.51775 | 8.42646 | 10334 ft | 326 kts | 66° |
| 2026-02-17 12:29 | 47.52427 | 8.45958 | 10541 ft | 347 kts | 72° |
| 2026-02-17 12:29 | 47.52835 | 8.48300 | 10664 ft | 362 kts | 72° |
| 2026-02-17 12:29 | 47.53499 | 8.52016 | 10860 ft | 385 kts | 72° |
| 2026-02-17 12:29 | 47.54214 | 8.55898 | 11393 ft | 396 kts | 71° |
| 2026-02-17 12:30 | 47.55207 | 8.61148 | 12362 ft | 403 kts | 71° |
| 2026-02-17 12:30 | 47.55980 | 8.65156 | 13177 ft | 407 kts | 71° |
| 2026-02-17 12:30 | 47.56766 | 8.69195 | 13970 ft | 410 kts | 70° |
| 2026-02-17 12:31 | 47.58115 | 8.76016 | 15121 ft | 410 kts | 65° |
| 2026-02-17 12:31 | 47.59518 | 8.79638 | 15588 ft | 404 kts | 41° |
| 2026-02-17 12:31 | 47.61608 | 8.82222 | 16316 ft | 392 kts | 25° |
| 2026-02-17 12:31 | 47.64029 | 8.83925 | 17131 ft | 382 kts | 11° |
| 2026-02-17 12:32 | 47.66583 | 8.84982 | 17878 ft | 381 kts | 7° |
| 2026-02-17 12:32 | 47.69174 | 8.85932 | 18610 ft | 386 kts | 7° |
| 2026-02-17 12:32 | 47.71772 | 8.86926 | 19262 ft | 386 kts | 7° |
| 2026-02-17 12:32 | 47.74375 | 8.87963 | 19891 ft | 389 kts | 7° |
| 2026-02-17 12:33 | 47.76992 | 8.88987 | 20624 ft | 388 kts | 5° |
| 2026-02-17 12:33 | 47.79615 | 8.89792 | 21307 ft | 382 kts | 1° |
| 2026-02-17 12:33 | 47.82260 | 8.90249 | 21825 ft | 384 kts | 358° |
| 2026-02-17 12:33 | 47.84887 | 8.90648 | 22456 ft | 387 kts | 360° |
| 2026-02-17 12:34 | 47.87556 | 8.91284 | 23156 ft | 390 kts | 2° |
| 2026-02-17 12:34 | 47.90230 | 8.92055 | 23728 ft | 393 kts | 3° |
| 2026-02-17 12:34 | 47.92913 | 8.92885 | 24234 ft | 394 kts | 3° |
| 2026-02-17 12:35 | 47.98255 | 8.94633 | 25402 ft | 392 kts | 3° |
| 2026-02-17 12:35 | 48.00901 | 8.95460 | 25945 ft | 387 kts | 359° |
| 2026-02-17 12:35 | 48.03557 | 8.95897 | 26414 ft | 383 kts | 355° |
| 2026-02-17 12:35 | 48.06218 | 8.96131 | 26761 ft | 382 kts | 354° |
| 2026-02-17 12:36 | 48.08811 | 8.96289 | 27545 ft | 373 kts | 352° |
| 2026-02-17 12:36 | 48.11378 | 8.96084 | 27959 ft | 369 kts | 346° |
| 2026-02-17 12:36 | 48.13929 | 8.95585 | 28268 ft | 371 kts | 345° |
| 2026-02-17 12:36 | 48.16475 | 8.94987 | 28687 ft | 370 kts | 344° |
| 2026-02-17 12:37 | 48.19011 | 8.94359 | 29142 ft | 368 kts | 343° |
| 2026-02-17 12:37 | 48.21540 | 8.93715 | 29531 ft | 369 kts | 343° |
| 2026-02-17 12:37 | 48.24076 | 8.93069 | 29925 ft | 369 kts | 343° |
| 2026-02-17 12:37 | 48.26609 | 8.92418 | 30207 ft | 370 kts | 343° |
| 2026-02-17 12:38 | 48.29137 | 8.91702 | 30405 ft | 367 kts | 339° |
| 2026-02-17 12:38 | 48.31480 | 8.90253 | 30495 ft | 364 kts | 329° |
| 2026-02-17 12:39 | 48.37622 | 8.83438 | 30935 ft | 371 kts | 316° |
| 2026-02-17 12:39 | 48.39390 | 8.80607 | 31176 ft | 371 kts | 315° |
| 2026-02-17 12:39 | 48.41125 | 8.77722 | 31330 ft | 372 kts | 315° |
| 2026-02-17 12:40 | 48.44594 | 8.71891 | 31519 ft | 376 kts | 315° |
| 2026-02-17 12:40 | 48.46348 | 8.68981 | 31782 ft | 374 kts | 315° |
| 2026-02-17 12:40 | 48.48076 | 8.66097 | 31813 ft | 376 kts | 315° |
| 2026-02-17 12:41 | 48.51532 | 8.60316 | 31884 ft | 367 kts | 315° |
| 2026-02-17 12:41 | 48.54950 | 8.54600 | 31887 ft | 368 kts | 316° |